Time;durP1;ratioP1;P1;durP2;ratioP2;P2;SDS_P1;SDS_P2;PMS_P1;PMS_P2;Temp;Humidity;BMP_temperature;BMP_pressure;BME280_temperature;BME280_humidity;BME280_pressure;Samples;Min_cycle;Max_cycle;Signal;HPM_P1;HPM_P2
2023/01/30 00:01:40;;;;;;;36.77;24.37;;;5.40;99.90;;;;;;5059142;28;20553;-84
2023/01/30 00:04:13;;;;;;;41.13;26.37;;;5.40;99.90;;;;;;5053942;28;20201;-86
2023/01/30 00:07:34;;;;;;;36.53;25.57;;;5.40;99.90;;;;;;5060306;28;20157;-86
2023/01/30 00:10:00;;;;;;;37.33;24.80;;;5.50;99.90;;;;;;5073290;28;20259;-85
2023/01/30 00:12:27;;;;;;;34.20;24.53;;;5.50;99.90;;;;;;5057799;28;20211;-86
2023/01/30 00:14:55;;;;;;;40.33;26.10;;;5.50;99.90;;;;;;5070650;28;20248;-84
2023/01/30 00:17:20;;;;;;;39.57;25.93;;;5.60;99.90;;;;;;5054922;28;20189;-86
2023/01/30 00:19:46;;;;;;;38.07;25.90;;;5.60;99.90;;;;;;5053821;28;20277;-85
2023/01/30 00:22:12;;;;;;;34.03;23.93;;;5.30;99.90;;;;;;5069915;28;20177;-84
2023/01/30 00:24:37;;;;;;;37.20;25.60;;;5.30;99.90;;;;;;5075676;28;20212;-83
2023/01/30 00:27:03;;;;;;;35.70;24.83;;;5.30;99.90;;;;;;5073559;28;20189;-86
2023/01/30 00:29:29;;;;;;;35.30;25.70;;;5.40;99.90;;;;;;5069788;28;20173;-85
2023/01/30 00:31:54;;;;;;;33.07;25.43;;;5.40;99.90;;;;;;5072655;28;20188;-86
2023/01/30 00:34:20;;;;;;;36.60;26.27;;;5.50;99.90;;;;;;5056263;28;20180;-86
2023/01/30 00:37:03;;;;;;;31.57;24.67;;;5.40;99.90;;;;;;5058611;28;20180;-85
2023/01/30 00:39:29;;;;;;;35.57;25.77;;;5.60;99.90;;;;;;5053220;28;20177;-85
2023/01/30 00:47:38;;;;;;;32.63;23.70;;;5.50;99.90;;;;;;5033405;28;20193;-85
2023/01/30 00:50:05;;;;;;;38.23;25.83;;;5.60;99.90;;;;;;5054031;28;20173;-85
2023/01/30 00:52:30;;;;;;;34.80;24.70;;;5.40;99.90;;;;;;5053335;28;20243;-84
2023/01/30 00:54:56;;;;;;;34.27;23.83;;;5.50;99.90;;;;;;5051917;28;20288;-84
2023/01/30 00:57:22;;;;;;;34.57;25.57;;;5.40;99.90;;;;;;5054302;28;20204;-85
2023/01/30 00:59:47;;;;;;;34.03;23.97;;;5.50;99.90;;;;;;5055815;28;20264;-85
2023/01/30 01:02:13;;;;;;;31.97;23.10;;;5.60;99.90;;;;;;5055150;28;20230;-84
2023/01/30 01:04:43;;;;;;;32.93;24.67;;;5.60;99.90;;;;;;5069521;28;20209;-84
2023/01/30 01:07:41;;;;;;;29.37;22.73;;;5.70;99.90;;;;;;5072980;28;20161;-86
2023/01/30 01:10:08;;;;;;;33.50;23.43;;;5.80;99.90;;;;;;5057603;28;20203;-84
2023/01/30 01:12:34;;;;;;;36.67;25.57;;;5.80;99.90;;;;;;5056445;28;20173;-84
2023/01/30 01:14:59;;;;;;;33.07;23.43;;;5.80;99.90;;;;;;5061808;28;20223;-85
2023/01/30 01:17:25;;;;;;;29.30;22.20;;;5.80;99.90;;;;;;5058280;28;20536;-86
2023/01/30 01:19:50;;;;;;;28.77;21.37;;;5.90;99.90;;;;;;5056920;28;20211;-86
2023/01/30 01:22:16;;;;;;;33.50;22.90;;;5.90;99.90;;;;;;5057177;28;20161;-84
2023/01/30 01:24:42;;;;;;;29.90;22.50;;;5.90;99.90;;;;;;5055726;28;20726;-84
2023/01/30 01:27:07;;;;;;;31.07;23.23;;;5.80;99.90;;;;;;5057971;28;20193;-83
2023/01/30 01:29:33;;;;;;;29.10;22.93;;;5.90;99.90;;;;;;5062528;28;20165;-85
2023/01/30 01:31:59;;;;;;;30.40;21.70;;;5.80;99.90;;;;;;5054347;28;20212;-84
2023/01/30 01:34:24;;;;;;;28.87;21.93;;;5.90;99.90;;;;;;5056709;28;20188;-85
2023/01/30 01:36:50;;;;;;;29.50;20.77;;;5.80;99.90;;;;;;5057189;28;20172;-85
2023/01/30 01:39:15;;;;;;;29.17;21.83;;;6.00;99.90;;;;;;5056685;28;20207;-85
2023/01/30 01:41:41;;;;;;;31.20;23.53;;;5.90;99.90;;;;;;5055205;28;20756;-85
2023/01/30 01:44:10;;;;;;;31.27;22.00;;;5.90;99.90;;;;;;5054506;28;20197;-86
2023/01/30 01:46:57;;;;;;;27.93;21.57;;;6.00;99.90;;;;;;5064307;28;20180;-85
2023/01/30 01:49:29;;;;;;;32.80;22.43;;;6.00;99.90;;;;;;5063632;28;20699;-85
2023/01/30 01:52:09;;;;;;;28.17;20.47;;;6.00;99.90;;;;;;5059723;28;20172;-85
2023/01/30 01:54:43;;;;;;;29.63;20.63;;;6.00;99.90;;;;;;5064974;28;20223;-85
2023/01/30 01:57:17;;;;;;;32.40;21.00;;;6.10;99.90;;;;;;5067169;28;20173;-86
2023/01/30 02:00:10;;;;;;;26.47;20.67;;;6.10;99.90;;;;;;5056507;28;20692;-85
2023/01/30 02:02:38;;;;;;;28.47;21.07;;;6.10;99.90;;;;;;5052531;28;20189;-84
2023/01/30 02:05:05;;;;;;;29.73;21.70;;;6.20;99.90;;;;;;5054635;28;20212;-86
2023/01/30 02:07:40;;;;;;;31.93;22.00;;;6.20;99.90;;;;;;5054170;28;20219;-86
2023/01/30 02:10:10;;;;;;;30.43;21.33;;;6.10;99.90;;;;;;5053428;28;20168;-85
2023/01/30 02:12:38;;;;;;;28.07;21.07;;;6.10;99.90;;;;;;5055889;28;20676;-85
2023/01/30 02:15:05;;;;;;;29.80;23.00;;;6.20;99.90;;;;;;5061364;28;20161;-84
2023/01/30 02:17:31;;;;;;;32.23;22.10;;;6.30;99.90;;;;;;5077537;28;20191;-85
2023/01/30 02:20:48;;;;;;;31.60;22.30;;;6.20;99.90;;;;;;5069478;28;20700;-85
2023/01/30 02:23:35;;;;;;;29.40;19.57;;;6.20;99.90;;;;;;5022711;28;20181;-85
2023/01/30 02:26:10;;;;;;;27.03;19.73;;;6.30;99.90;;;;;;5065909;28;20238;-84
2023/01/30 02:29:17;;;;;;;27.97;20.40;;;6.20;99.90;;;;;;5061503;28;20199;-85
2023/01/30 02:32:06;;;;;;;25.57;20.07;;;6.20;99.90;;;;;;5066750;28;20172;-84
2023/01/30 02:35:07;;;;;;;29.23;19.57;;;6.30;99.90;;;;;;5071250;28;20242;-85
2023/01/30 02:38:01;;;;;;;30.90;20.27;;;6.30;99.90;;;;;;5014686;28;20203;-84
2023/01/30 02:40:59;;;;;;;29.57;21.13;;;6.30;99.90;;;;;;5055341;28;20192;-85
2023/01/30 02:43:33;;;;;;;24.87;19.37;;;6.30;99.90;;;;;;5074483;28;20169;-85
2023/01/30 02:46:25;;;;;;;29.83;19.70;;;6.40;99.90;;;;;;5055276;28;20191;-85
2023/01/30 02:49:08;;;;;;;26.80;19.13;;;6.30;99.90;;;;;;5055198;28;20272;-86
2023/01/30 02:51:36;;;;;;;27.73;19.43;;;6.40;99.90;;;;;;5054006;28;20187;-84
2023/01/30 02:54:06;;;;;;;25.83;18.37;;;6.50;99.90;;;;;;5053945;28;20193;-85
2023/01/30 02:56:51;;;;;;;24.57;18.33;;;6.50;99.90;;;;;;5054113;28;20629;-85
2023/01/30 02:59:25;;;;;;;27.67;19.20;;;6.50;99.90;;;;;;5055016;28;20172;-85
2023/01/30 03:02:04;;;;;;;28.27;19.83;;;6.50;99.90;;;;;;5058478;28;20172;-85
2023/01/30 03:05:05;;;;;;;24.43;18.30;;;6.60;99.90;;;;;;5054974;28;20229;-85
2023/01/30 03:07:37;;;;;;;25.20;18.07;;;6.70;99.90;;;;;;5056214;28;20187;-85
2023/01/30 03:10:24;;;;;;;25.07;18.33;;;6.70;99.90;;;;;;5072975;28;20158;-86
2023/01/30 03:13:09;;;;;;;27.20;19.53;;;6.80;99.90;;;;;;5078006;28;20177;-84
2023/01/30 03:19:11;;;;;;;25.57;17.27;;;6.70;99.90;;;;;;5061428;28;20195;-85
2023/01/30 03:21:41;;;;;;;22.40;17.90;;;6.70;99.90;;;;;;5063182;28;20200;-84
2023/01/30 03:24:07;;;;;;;24.03;16.93;;;6.70;99.90;;;;;;5057277;28;20192;-85
2023/01/30 03:26:36;;;;;;;25.30;18.03;;;6.80;99.90;;;;;;5054041;28;20176;-85
2023/01/30 03:29:03;;;;;;;28.40;18.67;;;6.90;99.90;;;;;;5053870;28;20218;-84
2023/01/30 03:31:28;;;;;;;25.00;17.60;;;6.80;99.90;;;;;;5051926;28;20173;-84
2023/01/30 03:33:54;;;;;;;23.80;17.43;;;6.80;99.90;;;;;;5053292;28;20655;-84
2023/01/30 03:36:20;;;;;;;26.03;18.07;;;6.90;99.90;;;;;;5053267;28;20173;-85
2023/01/30 03:38:45;;;;;;;23.40;16.93;;;6.90;99.90;;;;;;5053730;28;20636;-86
2023/01/30 03:41:11;;;;;;;23.80;16.67;;;6.90;99.90;;;;;;5053517;28;20180;-86
2023/01/30 03:43:37;;;;;;;23.37;16.77;;;7.00;99.90;;;;;;5052642;28;20214;-85
2023/01/30 03:46:02;;;;;;;21.80;16.83;;;7.00;99.90;;;;;;5055061;28;20219;-86
2023/01/30 03:48:28;;;;;;;23.13;17.10;;;7.00;99.90;;;;;;5056285;28;20248;-83
2023/01/30 03:50:54;;;;;;;22.87;15.53;;;7.10;99.90;;;;;;5071033;28;20659;-85
2023/01/30 03:53:19;;;;;;;22.97;16.50;;;7.10;99.90;;;;;;5069704;28;20199;-84
2023/01/30 03:55:45;;;;;;;21.50;14.53;;;7.00;99.90;;;;;;5058709;28;20179;-85
2023/01/30 03:58:11;;;;;;;27.00;15.80;;;7.00;99.90;;;;;;5054584;28;20633;-83
2023/01/30 04:00:37;;;;;;;23.43;15.67;;;7.10;99.90;;;;;;5053334;28;20165;-84
2023/01/30 04:03:06;;;;;;;25.43;15.67;;;7.20;99.90;;;;;;5054241;28;20563;-84
2023/01/30 04:05:32;;;;;;;21.60;15.97;;;7.20;99.90;;;;;;5053274;28;20209;-85
2023/01/30 04:07:58;;;;;;;21.63;15.27;;;7.20;99.90;;;;;;5053835;28;20180;-85
2023/01/30 04:10:24;;;;;;;25.27;15.90;;;7.30;99.90;;;;;;5053500;28;20176;-85
2023/01/30 04:12:50;;;;;;;22.40;15.57;;;7.20;99.90;;;;;;5055997;28;20184;-85
2023/01/30 04:15:16;;;;;;;22.77;16.00;;;7.20;99.90;;;;;;5061775;28;20212;-83
2023/01/30 04:17:43;;;;;;;23.17;15.77;;;7.30;99.90;;;;;;5073909;28;20203;-82
2023/01/30 04:20:09;;;;;;;20.60;15.03;;;7.10;99.90;;;;;;5069825;28;20204;-84
2023/01/30 04:22:35;;;;;;;24.23;15.47;;;7.10;99.90;;;;;;5055090;28;20180;-85
2023/01/30 04:25:02;;;;;;;24.80;15.07;;;7.20;99.90;;;;;;5055692;28;20212;-85
2023/01/30 04:27:28;;;;;;;22.30;15.73;;;7.20;99.90;;;;;;5053034;28;20634;-85
2023/01/30 04:29:54;;;;;;;24.43;15.47;;;7.30;99.90;;;;;;5058398;28;20187;-85
2023/01/30 04:32:19;;;;;;;24.77;16.27;;;7.20;99.90;;;;;;5076830;28;20153;-83
2023/01/30 04:34:45;;;;;;;20.83;14.63;;;7.30;99.90;;;;;;5072216;28;20240;-86
2023/01/30 04:37:12;;;;;;;22.87;15.03;;;7.30;99.90;;;;;;5059113;28;20168;-84
2023/01/30 04:39:38;;;;;;;20.50;15.43;;;7.30;99.90;;;;;;5056591;28;20208;-86
2023/01/30 04:42:04;;;;;;;25.30;15.23;;;7.20;99.90;;;;;;5056537;28;20203;-84
2023/01/30 04:44:30;;;;;;;24.43;17.60;;;7.30;99.90;;;;;;5055314;28;20733;-85
2023/01/30 04:46:56;;;;;;;22.53;15.77;;;7.30;99.90;;;;;;5059742;28;20165;-84
2023/01/30 04:49:21;;;;;;;24.80;16.07;;;7.30;99.90;;;;;;5069806;28;20169;-86
2023/01/30 04:51:47;;;;;;;25.50;16.53;;;7.30;99.90;;;;;;5061363;28;20226;-84
2023/01/30 04:54:18;;;;;;;26.07;16.90;;;7.30;99.90;;;;;;5057042;28;20203;-84
2023/01/30 04:56:44;;;;;;;23.33;15.80;;;7.30;99.90;;;;;;5055914;28;20690;-84
2023/01/30 04:59:10;;;;;;;19.13;14.70;;;7.30;99.90;;;;;;5064155;28;20185;-83
2023/01/30 05:01:37;;;;;;;21.73;14.97;;;7.30;99.90;;;;;;5056719;28;20200;-84
2023/01/30 05:04:05;;;;;;;20.10;15.53;;;7.30;99.90;;;;;;5055515;28;20192;-85
2023/01/30 05:06:32;;;;;;;22.63;15.73;;;7.40;99.90;;;;;;5055746;28;20177;-85
2023/01/30 05:08:57;;;;;;;25.77;15.03;;;7.40;99.90;;;;;;5056495;28;20172;-85
2023/01/30 05:11:24;;;;;;;23.53;15.40;;;7.40;99.90;;;;;;5055393;28;20177;-85
2023/01/30 05:13:50;;;;;;;22.67;13.83;;;7.40;99.90;;;;;;5054564;28;20268;-85
2023/01/30 05:16:18;;;;;;;20.97;14.20;;;7.30;99.90;;;;;;5056979;28;20193;-85
2023/01/30 05:18:43;;;;;;;21.53;15.73;;;7.50;99.90;;;;;;5055487;28;20612;-85
2023/01/30 05:21:18;;;;;;;21.83;14.70;;;7.40;99.90;;;;;;5066866;28;20185;-84
2023/01/30 05:23:54;;;;;;;21.07;15.13;;;7.50;99.90;;;;;;5071886;28;20232;-84
2023/01/30 05:26:21;;;;;;;22.87;13.83;;;7.50;99.90;;;;;;5059036;28;20191;-85
2023/01/30 05:28:51;;;;;;;17.30;13.83;;;7.50;99.90;;;;;;5056393;28;20177;-85
2023/01/30 05:31:17;;;;;;;21.60;14.10;;;7.50;99.90;;;;;;5056782;28;20200;-86
2023/01/30 05:33:47;;;;;;;20.20;14.23;;;7.50;99.90;;;;;;5055183;28;20170;-85
2023/01/30 05:36:15;;;;;;;18.70;12.90;;;7.50;99.90;;;;;;5055592;28;20180;-84
2023/01/30 05:38:45;;;;;;;22.33;13.83;;;7.50;99.90;;;;;;5056810;28;20168;-85
2023/01/30 05:41:12;;;;;;;22.90;14.70;;;7.50;99.90;;;;;;5057370;28;20236;-86
2023/01/30 05:43:38;;;;;;;18.63;12.77;;;7.50;99.90;;;;;;5055380;28;20303;-86
2023/01/30 05:46:05;;;;;;;16.93;13.20;;;7.50;99.90;;;;;;5054915;28;20264;-85
2023/01/30 05:48:32;;;;;;;20.47;13.00;;;7.60;99.90;;;;;;5055888;28;20176;-85
2023/01/30 05:50:59;;;;;;;16.10;12.07;;;7.60;99.90;;;;;;5057408;28;20222;-85
2023/01/30 05:53:31;;;;;;;16.63;12.70;;;7.70;99.90;;;;;;5055989;28;20734;-86
2023/01/30 05:55:58;;;;;;;20.03;12.57;;;7.70;99.90;;;;;;5055596;28;20264;-85
2023/01/30 05:58:25;;;;;;;15.90;12.57;;;7.80;99.90;;;;;;5055816;28;20181;-86
2023/01/30 06:00:51;;;;;;;17.97;11.57;;;7.70;99.90;;;;;;5055783;28;20188;-85
2023/01/30 06:03:17;;;;;;;15.73;10.87;;;7.80;99.90;;;;;;5055402;28;20275;-84
2023/01/30 06:05:42;;;;;;;15.67;11.97;;;7.70;99.90;;;;;;5055419;28;20212;-83
2023/01/30 06:08:08;;;;;;;13.97;11.60;;;7.70;99.90;;;;;;5056848;28;20657;-86
2023/01/30 06:10:34;;;;;;;16.37;11.20;;;7.90;99.90;;;;;;5055167;28;20246;-85
2023/01/30 06:13:00;;;;;;;14.60;10.83;;;7.80;99.90;;;;;;5055428;28;20274;-85
2023/01/30 06:15:26;;;;;;;16.60;11.07;;;7.90;99.90;;;;;;5054664;28;20637;-84
2023/01/30 06:17:55;;;;;;;16.00;10.80;;;7.90;99.90;;;;;;5056177;28;20171;-84
2023/01/30 06:20:21;;;;;;;19.43;11.03;;;8.00;99.90;;;;;;5054613;28;20237;-87
2023/01/30 06:22:47;;;;;;;17.57;10.53;;;8.00;99.90;;;;;;5056374;28;20216;-85
2023/01/30 06:25:22;;;;;;;17.83;10.93;;;8.00;99.90;;;;;;5060360;28;20200;-85
2023/01/30 06:27:47;;;;;;;16.97;10.30;;;8.00;99.90;;;;;;5063205;28;20194;-86
2023/01/30 06:30:13;;;;;;;15.60;9.03;;;8.00;99.90;;;;;;5062591;28;20607;-85
2023/01/30 06:32:40;;;;;;;13.60;9.03;;;8.00;99.90;;;;;;5061993;28;20700;-86
2023/01/30 06:35:06;;;;;;;13.37;8.70;;;8.10;99.90;;;;;;5061535;28;20230;-86
2023/01/30 06:37:32;;;;;;;13.57;8.63;;;8.10;99.90;;;;;;5060711;28;20531;-86
2023/01/30 06:39:58;;;;;;;12.97;7.83;;;8.20;99.90;;;;;;5065071;28;20248;-85
2023/01/30 06:42:24;;;;;;;12.13;7.97;;;8.20;99.90;;;;;;5062179;28;20200;-85
2023/01/30 06:44:51;;;;;;;15.37;8.13;;;8.10;99.90;;;;;;5062624;28;20208;-86
2023/01/30 06:47:16;;;;;;;10.73;7.60;;;8.20;99.90;;;;;;5068601;28;20157;-84
2023/01/30 06:49:42;;;;;;;9.80;7.80;;;8.20;99.90;;;;;;5069472;28;20188;-84
2023/01/30 06:52:09;;;;;;;11.20;8.03;;;8.20;99.90;;;;;;5066270;28;20543;-84
2023/01/30 06:54:37;;;;;;;12.17;8.03;;;8.20;99.90;;;;;;5069053;28;20199;-85
2023/01/30 06:57:11;;;;;;;12.33;7.93;;;8.40;99.90;;;;;;5063894;28;20169;-86
2023/01/30 06:59:43;;;;;;;12.70;8.30;;;8.30;99.90;;;;;;5060899;28;20219;-87
2023/01/30 07:02:12;;;;;;;11.60;7.77;;;8.40;99.90;;;;;;5057350;28;20522;-84
2023/01/30 07:04:37;;;;;;;13.67;7.80;;;8.30;99.90;;;;;;5075070;28;20229;-84
2023/01/30 07:07:03;;;;;;;15.17;8.10;;;8.40;99.90;;;;;;5070021;28;20173;-84
2023/01/30 07:09:29;;;;;;;12.67;7.73;;;8.40;99.90;;;;;;5059879;28;20170;-84
2023/01/30 07:12:17;;;;;;;12.10;8.20;;;8.40;99.90;;;;;;5054942;28;20219;-86
2023/01/30 07:14:43;;;;;;;9.63;7.87;;;8.40;99.90;;;;;;5055561;28;20539;-84
2023/01/30 07:17:09;;;;;;;13.73;8.20;;;8.30;99.90;;;;;;5056179;28;20212;-84
2023/01/30 07:19:34;;;;;;;12.30;7.70;;;8.40;99.90;;;;;;5059484;28;20197;-84
2023/01/30 07:22:00;;;;;;;11.87;7.30;;;8.50;99.90;;;;;;5073636;28;20181;-85
2023/01/30 07:24:25;;;;;;;12.97;7.00;;;8.50;99.90;;;;;;5056096;28;20201;-85
2023/01/30 07:26:51;;;;;;;11.27;7.40;;;8.50;99.90;;;;;;5073928;28;20226;-85
2023/01/30 07:29:18;;;;;;;9.70;6.40;;;8.50;99.90;;;;;;5068625;28;20240;-85
2023/01/30 07:31:43;;;;;;;15.27;8.13;;;8.60;99.90;;;;;;5063470;28;20222;-85
2023/01/30 07:34:09;;;;;;;13.83;6.73;;;8.60;99.90;;;;;;5055535;28;20604;-85
2023/01/30 07:36:36;;;;;;;11.27;6.37;;;8.60;99.90;;;;;;5055953;28;20172;-85
2023/01/30 07:39:04;;;;;;;11.47;6.60;;;8.60;99.90;;;;;;5062185;28;20185;-83
2023/01/30 07:41:29;;;;;;;10.13;8.00;;;8.50;99.90;;;;;;5069968;28;20263;-85
2023/01/30 07:43:55;;;;;;;16.80;10.23;;;8.50;99.90;;;;;;5065318;28;20649;-86
2023/01/30 07:46:20;;;;;;;22.53;12.17;;;8.50;99.90;;;;;;5055708;28;20208;-85
2023/01/30 07:48:46;;;;;;;13.33;6.97;;;8.50;99.90;;;;;;5056429;28;20173;-84
2023/01/30 07:51:15;;;;;;;11.57;6.80;;;8.50;99.90;;;;;;5055208;28;20244;-84
2023/01/30 07:53:41;;;;;;;12.80;7.53;;;8.60;99.90;;;;;;5054975;28;20197;-85
2023/01/30 07:56:13;;;;;;;15.67;7.93;;;8.50;99.90;;;;;;5053972;28;20645;-85
2023/01/30 07:58:39;;;;;;;16.27;9.40;;;8.60;99.90;;;;;;5056344;28;20288;-83
2023/01/30 08:01:05;;;;;;;11.53;5.23;;;8.70;99.90;;;;;;5055894;28;20273;-84
2023/01/30 08:03:30;;;;;;;9.57;4.80;;;8.50;99.90;;;;;;5054687;28;20255;-84
2023/01/30 08:05:56;;;;;;;37.10;16.37;;;8.50;99.90;;;;;;5054689;28;20192;-84
2023/01/30 08:08:22;;;;;;;12.80;6.50;;;8.50;99.90;;;;;;5058472;28;20179;-84
2023/01/30 08:10:48;;;;;;;11.70;5.27;;;8.60;99.90;;;;;;5072250;28;20228;-83
2023/01/30 08:13:14;;;;;;;14.53;5.57;;;8.60;99.90;;;;;;5071445;28;20177;-85
2023/01/30 08:15:40;;;;;;;14.47;5.47;;;8.50;99.90;;;;;;5069044;28;20265;-85
2023/01/30 08:18:06;;;;;;;13.17;5.13;;;8.50;99.90;;;;;;5059825;28;20633;-84
2023/01/30 08:20:32;;;;;;;13.10;5.43;;;8.50;99.90;;;;;;5061229;28;20188;-84
2023/01/30 08:22:59;;;;;;;15.20;6.97;;;8.50;99.90;;;;;;5059093;28;20225;-84
2023/01/30 08:25:25;;;;;;;13.87;7.33;;;8.50;99.90;;;;;;5057043;28;20213;-84
2023/01/30 08:27:51;;;;;;;11.30;5.80;;;8.60;99.90;;;;;;5057150;28;20173;-83
2023/01/30 08:30:18;;;;;;;13.17;7.70;;;8.60;99.90;;;;;;5056953;28;20596;-84
2023/01/30 08:32:43;;;;;;;16.17;7.27;;;8.50;99.90;;;;;;5056585;28;20176;-84
2023/01/30 08:35:10;;;;;;;14.47;4.93;;;8.60;97.70;;;;;;5058796;28;20174;-87
2023/01/30 08:37:37;;;;;;;17.47;6.03;;;8.40;95.70;;;;;;5059483;28;20180;-86
2023/01/30 08:40:03;;;;;;;18.07;5.93;;;8.40;94.70;;;;;;5059264;28;20177;-86
2023/01/30 08:42:29;;;;;;;16.07;5.07;;;8.40;92.70;;;;;;5056976;28;20188;-85
2023/01/30 08:44:54;;;;;;;13.00;4.20;;;8.40;90.30;;;;;;5056463;28;20295;-85
2023/01/30 08:47:20;;;;;;;12.93;4.00;;;8.40;87.50;;;;;;5057500;28;20200;-85
2023/01/30 08:49:46;;;;;;;11.13;4.00;;;8.40;83.10;;;;;;5058755;28;20189;-84
2023/01/30 08:52:11;;;;;;;9.83;4.00;;;8.60;81.90;;;;;;5057152;28;20175;-85
2023/01/30 08:54:37;;;;;;;8.90;3.97;;;8.40;77.20;;;;;;5057307;28;20196;-84
2023/01/30 08:57:03;;;;;;;11.43;3.47;;;8.40;73.80;;;;;;5058463;28;20661;-84
2023/01/30 08:59:28;;;;;;;12.67;5.00;;;8.40;69.80;;;;;;5060598;28;20529;-84
2023/01/30 09:01:55;;;;;;;9.70;2.83;;;8.50;65.50;;;;;;5057441;28;20180;-84
2023/01/30 09:04:23;;;;;;;8.53;3.27;;;8.60;61.90;;;;;;5058018;28;20240;-83
2023/01/30 09:06:49;;;;;;;23.90;10.07;;;8.60;59.20;;;;;;5059251;28;20157;-85
2023/01/30 09:09:15;;;;;;;12.93;2.73;;;8.50;58.30;;;;;;5058632;28;20177;-85
2023/01/30 09:11:41;;;;;;;12.67;3.70;;;8.50;57.10;;;;;;5057240;28;20169;-85
2023/01/30 09:14:08;;;;;;;7.23;2.90;;;8.60;58.20;;;;;;5064090;28;20613;-85
2023/01/30 09:16:33;;;;;;;9.80;3.10;;;8.60;58.30;;;;;;5067510;28;20192;-87
2023/01/30 09:19:00;;;;;;;14.23;3.30;;;8.60;57.90;;;;;;5058032;28;20180;-82
2023/01/30 09:21:27;;;;;;;12.80;4.03;;;8.60;59.20;;;;;;5078278;28;20597;-84
2023/01/30 09:23:55;;;;;;;9.37;3.57;;;8.60;59.80;;;;;;5059208;28;20205;-84
2023/01/30 09:26:21;;;;;;;12.77;4.53;;;8.80;57.40;;;;;;5056951;28;20625;-84
2023/01/30 09:28:47;;;;;;;11.37;4.23;;;8.90;58.60;;;;;;5056849;28;20527;-83
2023/01/30 09:31:13;;;;;;;9.03;3.87;;;8.70;51.30;;;;;;5056539;28;20199;-82
2023/01/30 09:33:40;;;;;;;16.53;7.57;;;8.70;54.40;;;;;;5057665;28;20195;-83
2023/01/30 09:36:06;;;;;;;18.33;6.93;;;8.70;54.50;;;;;;5057344;28;20492;-83
2023/01/30 09:38:31;;;;;;;14.23;5.20;;;8.70;51.50;;;;;;5077226;28;20194;-82
2023/01/30 09:41:38;;;;;;;12.47;3.30;;;8.70;48.00;;;;;;5069178;28;20188;-83
2023/01/30 09:44:41;;;;;;;13.83;3.63;;;8.70;47.90;;;;;;5000386;28;20304;-84
2023/01/30 09:47:08;;;;;;;10.50;2.90;;;8.80;46.00;;;;;;5071782;28;20153;-84
2023/01/30 09:50:04;;;;;;;9.23;3.47;;;8.80;43.30;;;;;;5078123;28;20185;-84
2023/01/30 09:52:38;;;;;;;15.07;5.03;;;8.80;43.10;;;;;;5069997;28;20174;-84
2023/01/30 09:55:22;;;;;;;16.67;5.77;;;8.80;42.20;;;;;;5054732;28;20605;-84
2023/01/30 09:57:50;;;;;;;16.17;4.97;;;8.90;44.10;;;;;;5054545;28;20165;-85
2023/01/30 10:00:35;;;;;;;17.33;5.30;;;9.10;42.80;;;;;;5054283;28;20169;-83
2023/01/30 10:03:17;;;;;;;15.00;4.73;;;9.20;38.20;;;;;;5060921;28;20176;-85
2023/01/30 10:05:53;;;;;;;16.03;6.03;;;9.30;38.10;;;;;;5063822;28;20338;-83
2023/01/30 10:08:44;;;;;;;11.80;3.57;;;9.00;37.80;;;;;;5063414;28;20570;-86
2023/01/30 10:11:39;;;;;;;13.63;3.67;;;9.10;36.70;;;;;;5068784;28;20173;-84
2023/01/30 10:14:43;;;;;;;11.60;3.10;;;9.10;39.10;;;;;;5067464;28;20244;-83
2023/01/30 10:17:32;;;;;;;13.67;3.60;;;9.10;37.70;;;;;;5049502;28;20287;-83
2023/01/30 10:20:50;;;;;;;12.97;3.07;;;9.20;37.10;;;;;;5054640;28;20219;-84
2023/01/30 10:23:37;;;;;;;12.60;3.60;;;9.20;34.70;;;;;;4998752;28;20285;-86
2023/01/30 10:26:18;;;;;;;17.33;4.70;;;9.30;33.90;;;;;;5056184;28;20181;-85
2023/01/30 10:28:56;;;;;;;13.37;3.30;;;9.40;14.90;;;;;;5057434;28;20161;-88
2023/01/30 10:31:27;;;;;;;15.13;4.67;;;9.10;10.40;;;;;;5067165;28;20165;-83
2023/01/30 10:34:04;;;;;;;13.83;3.87;;;9.20;10.90;;;;;;5056894;28;20188;-87
2023/01/30 10:37:12;;;;;;;15.60;3.53;;;9.40;8.20;;;;;;5055199;28;20659;-87
2023/01/30 10:40:13;;;;;;;14.23;3.47;;;9.40;4.10;;;;;;5047308;28;20647;-87
2023/01/30 10:42:44;;;;;;;12.07;3.47;;;9.50;1.00;;;;;;5057166;28;20221;-86
2023/01/30 10:45:14;;;;;;;14.70;4.07;;;9.40;1.00;;;;;;5056151;28;20200;-87
2023/01/30 10:48:33;;;;;;;14.03;3.83;;;9.30;1.00;;;;;;5047299;28;20204;-87
2023/01/30 10:51:04;;;;;;;14.63;3.40;;;9.40;1.00;;;;;;5039365;28;20184;-87
2023/01/30 10:53:55;;;;;;;13.97;3.83;;;9.40;1.00;;;;;;5056477;28;20274;-87
2023/01/30 10:57:03;;;;;;;17.83;3.53;;;9.50;1.00;;;;;;5057376;28;20208;-85
2023/01/30 10:59:42;;;;;;;11.97;3.00;;;9.40;1.00;;;;;;5056832;28;20702;-88
2023/01/30 11:02:33;;;;;;;13.30;3.27;;;9.40;1.00;;;;;;5056020;28;20190;-86
2023/01/30 11:05:11;;;;;;;16.93;3.30;;;9.50;1.00;;;;;;5055432;28;20204;-85
2023/01/30 11:07:39;;;;;;;14.37;3.30;;;9.60;1.00;;;;;;5056848;28;20629;-86
2023/01/30 11:10:15;;;;;;;14.30;3.07;;;9.70;1.00;;;;;;5057364;28;20188;-85
2023/01/30 11:12:41;;;;;;;12.30;4.07;;;9.50;1.00;;;;;;5055616;28;20183;-83
2023/01/30 11:15:07;;;;;;;12.27;3.50;;;9.40;1.00;;;;;;5062653;28;20177;-85
2023/01/30 11:17:37;;;;;;;15.83;3.60;;;9.50;1.00;;;;;;5067031;28;20165;-84
2023/01/30 11:20:23;;;;;;;11.53;3.13;;;9.60;1.00;;;;;;5057203;28;20267;-83
2023/01/30 11:22:59;;;;;;;20.43;7.93;;;9.70;1.00;;;;;;5055979;28;20169;-84
2023/01/30 11:25:26;;;;;;;12.43;3.57;;;9.70;1.00;;;;;;5054903;28;20274;-87
2023/01/30 11:28:00;;;;;;;11.67;3.00;;;9.60;1.00;;;;;;5056232;28;20227;-85
2023/01/30 11:30:32;;;;;;;12.03;3.23;;;9.60;1.00;;;;;;5058598;28;20976;-85
2023/01/30 11:33:17;;;;;;;11.80;3.40;;;9.50;1.00;;;;;;5067422;28;20165;-84
2023/01/30 11:36:00;;;;;;;12.70;3.27;;;9.40;1.00;;;;;;5054515;28;20276;-86
2023/01/30 11:38:28;;;;;;;15.23;3.00;;;9.40;1.00;;;;;;5056082;28;20179;-85
2023/01/30 11:41:23;;;;;;;13.23;3.80;;;9.40;1.00;;;;;;5054979;28;20191;-85
2023/01/30 11:43:49;;;;;;;8.73;3.23;;;9.40;1.00;;;;;;5054420;28;20189;-84
2023/01/30 11:46:17;;;;;;;14.57;3.40;;;9.50;1.00;;;;;;5052843;28;20185;-86
2023/01/30 11:48:52;;;;;;;10.33;2.97;;;9.70;1.00;;;;;;5054557;28;20180;-85
2023/01/30 11:51:20;;;;;;;10.93;3.27;;;9.60;1.00;;;;;;5064860;28;20165;-85
2023/01/30 11:53:49;;;;;;;12.37;3.30;;;9.50;1.00;;;;;;5070489;28;20216;-86
2023/01/30 11:56:16;;;;;;;13.73;3.17;;;9.30;1.00;;;;;;5060337;28;20188;-86
2023/01/30 11:58:57;;;;;;;9.03;2.67;;;9.30;1.00;;;;;;5055247;28;20196;-85
2023/01/30 12:01:33;;;;;;;15.00;3.93;;;9.30;1.00;;;;;;5055737;28;20183;-84
2023/01/30 12:04:00;;;;;;;12.73;3.50;;;9.30;1.00;;;;;;5057944;28;20188;-86
2023/01/30 12:06:29;;;;;;;16.97;4.00;;;9.30;1.00;;;;;;5075827;28;20184;-82
2023/01/30 12:08:55;;;;;;;14.27;3.77;;;9.40;1.00;;;;;;5076357;28;20172;-82
2023/01/30 12:11:35;;;;;;;11.87;3.43;;;9.30;1.00;;;;;;5074349;28;20189;-86
2023/01/30 12:14:29;;;;;;;11.20;3.40;;;9.40;1.00;;;;;;5067382;28;20169;-85
2023/01/30 12:17:48;;;;;;;12.23;3.07;;;9.40;1.00;;;;;;5043382;28;20188;-84
2023/01/30 12:20:38;;;;;;;9.53;3.07;;;9.50;1.00;;;;;;5011585;28;20204;-84
2023/01/30 12:23:11;;;;;;;12.63;2.87;;;9.50;1.00;;;;;;5055520;28;20207;-84
2023/01/30 12:26:02;;;;;;;15.20;2.80;;;9.50;1.00;;;;;;5056982;28;20279;-85
2023/01/30 12:29:00;;;;;;;12.63;3.60;;;9.40;1.00;;;;;;5052845;28;20181;-85
2023/01/30 12:31:42;;;;;;;12.20;3.37;;;9.50;1.00;;;;;;5055954;28;20192;-84
2023/01/30 12:34:08;;;;;;;15.60;3.07;;;9.60;1.00;;;;;;5064333;28;20189;-82
2023/01/30 12:37:17;;;;;;;15.03;3.17;;;9.50;1.00;;;;;;5072389;28;20157;-83
2023/01/30 12:40:12;;;;;;;13.93;3.13;;;9.40;1.00;;;;;;5066719;28;20201;-85
2023/01/30 12:43:07;;;;;;;13.70;3.47;;;9.60;1.00;;;;;;5055134;28;20175;-85
2023/01/30 12:45:43;;;;;;;15.10;3.17;;;9.40;1.00;;;;;;5056425;28;20216;-84
2023/01/30 12:48:15;;;;;;;13.30;3.83;;;9.30;1.00;;;;;;5056450;28;20181;-83
2023/01/30 12:50:50;;;;;;;18.00;4.00;;;9.40;1.00;;;;;;5056074;28;20184;-83
2023/01/30 12:53:38;;;;;;;13.00;3.27;;;9.40;1.00;;;;;;5057132;28;20184;-83
2023/01/30 12:56:52;;;;;;;14.80;3.43;;;9.40;1.00;;;;;;5064331;28;20169;-83
2023/01/30 12:59:54;;;;;;;15.23;3.90;;;9.40;1.00;;;;;;5051421;28;20704;-84
2023/01/30 13:02:47;;;;;;;9.00;2.67;;;9.30;1.00;;;;;;5058260;28;20263;-84
2023/01/30 13:05:36;;;;;;;14.17;3.70;;;9.30;1.00;;;;;;5057592;28;20205;-83
2023/01/30 13:08:39;;;;;;;13.20;3.33;;;9.20;1.00;;;;;;5056594;28;20652;-85
2023/01/30 13:11:39;;;;;;;14.33;3.40;;;9.40;1.00;;;;;;5057740;28;20218;-84
2023/01/30 13:14:17;;;;;;;10.30;3.37;;;9.30;1.00;;;;;;5057490;28;20172;-86
2023/01/30 13:16:51;;;;;;;14.63;3.90;;;9.20;1.00;;;;;;5057079;28;20165;-85
2023/01/30 13:19:30;;;;;;;16.80;3.93;;;9.30;1.00;;;;;;5055593;28;20276;-83
2023/01/30 13:22:21;;;;;;;19.63;3.63;;;9.30;1.00;;;;;;5055334;28;20216;-83
2023/01/30 13:25:02;;;;;;;10.77;2.97;;;9.30;1.00;;;;;;5055221;28;20224;-84